createdAt,value
2022-08-05T00:00:17.046Z,533.00
2022-08-05T00:01:20.646Z,536.00
2022-08-05T00:02:16.981Z,542.00
2022-08-05T00:03:15.934Z,542.00
2022-08-05T00:04:15.903Z,542.00
2022-08-05T00:05:27.109Z,547.00
2022-08-05T00:06:28.981Z,550.00
2022-08-05T00:07:26.821Z,551.00
2022-08-05T00:08:26.437Z,550.00
2022-08-05T00:09:19.595Z,552.00
2022-08-05T00:10:15.814Z,552.00
2022-08-05T00:11:20.733Z,553.00
2022-08-05T00:12:16.784Z,552.00
2022-08-05T00:13:18.577Z,555.00
2022-08-05T00:14:17.169Z,552.00
2022-08-05T00:15:55.432Z,548.00
2022-08-05T00:16:16.745Z,553.00
2022-08-05T00:17:18.609Z,554.00
2022-08-05T00:18:21.359Z,552.00
2022-08-05T00:19:16.716Z,544.00
2022-08-05T00:20:15.672Z,538.00
2022-08-05T00:21:15.662Z,538.00
2022-08-05T00:22:15.664Z,541.00
2022-08-05T00:23:15.635Z,543.00
2022-08-05T00:24:16.204Z,544.00
2022-08-05T00:25:15.641Z,545.00
2022-08-05T00:26:16.337Z,547.00
2022-08-05T00:27:16.549Z,545.00
2022-08-05T00:28:15.607Z,542.00
2022-08-05T00:29:16.567Z,546.00
2022-08-05T00:30:15.618Z,548.00
2022-08-05T00:31:15.538Z,548.00
2022-08-05T00:32:15.888Z,548.00
2022-08-05T00:34:53.818Z,542.00
2022-08-05T00:34:55.635Z,547.00
2022-08-05T00:35:16.465Z,543.00
2022-08-05T00:36:37.803Z,539.00
2022-08-05T00:37:16.449Z,540.00
2022-08-05T00:38:15.427Z,537.00
2022-08-05T00:39:16.484Z,533.00
2022-08-05T00:40:17.904Z,531.00
2022-08-05T00:41:16.389Z,530.00
2022-08-05T00:42:32.049Z,530.00
2022-08-05T00:43:16.347Z,528.00
2022-08-05T00:44:15.421Z,532.00
2022-08-05T00:45:15.321Z,530.00
2022-08-05T00:46:15.328Z,534.00
2022-08-05T00:47:15.321Z,536.00
2022-08-05T00:48:15.339Z,542.00
2022-08-05T00:49:15.271Z,544.00
2022-08-05T00:50:15.360Z,545.00
2022-08-05T00:51:50.888Z,545.00
2022-08-05T00:52:16.271Z,542.00
2022-08-05T00:54:00.032Z,542.00
2022-08-05T00:54:16.200Z,540.00
2022-08-05T00:55:15.180Z,539.00
2022-08-05T00:56:17.296Z,538.00
2022-08-05T00:57:15.168Z,539.00
2022-08-05T00:58:16.181Z,537.00
2022-08-05T00:59:15.221Z,534.00
2022-08-05T01:00:15.124Z,534.00
2022-08-05T01:01:15.180Z,537.00
2022-08-05T01:02:16.641Z,540.00
2022-08-05T01:03:23.105Z,544.00
2022-08-05T01:04:19.952Z,547.00
2022-08-05T01:05:16.050Z,549.00
2022-08-05T01:06:15.369Z,550.00
2022-08-05T01:07:15.085Z,552.00
2022-08-05T01:08:40.699Z,553.00
2022-08-05T01:09:19.877Z,552.00
2022-08-05T01:10:15.003Z,550.00
2022-08-05T01:11:22.687Z,549.00
2022-08-05T01:12:18.813Z,542.00
2022-08-05T01:13:22.458Z,533.00
2022-08-05T01:14:16.073Z,522.00
2022-08-05T01:15:35.641Z,519.00
2022-08-05T01:16:16.002Z,515.00
2022-08-05T01:17:15.889Z,515.00
2022-08-05T01:18:14.954Z,520.00
2022-08-05T01:19:14.854Z,516.00
2022-08-05T01:20:14.962Z,516.00
2022-08-05T01:21:22.745Z,514.00
2022-08-05T01:22:18.797Z,513.00
2022-08-05T01:23:23.199Z,512.00
2022-08-05T01:24:15.793Z,511.00
2022-08-05T01:25:14.793Z,511.00
2022-08-05T01:26:14.768Z,511.00
2022-08-05T01:27:32.962Z,513.00
2022-08-05T01:28:15.895Z,515.00
2022-08-05T01:29:14.725Z,520.00
2022-08-05T01:30:17.757Z,525.00
2022-08-05T01:31:14.693Z,530.00
2022-08-05T01:32:18.529Z,534.00
2022-08-05T01:33:14.664Z,536.00
2022-08-05T01:34:15.684Z,537.00
2022-08-05T01:35:51.342Z,536.00
2022-08-05T01:36:16.036Z,537.00
2022-08-05T01:37:24.418Z,537.00
2022-08-05T01:38:27.207Z,537.00
2022-08-05T01:39:15.631Z,532.00
2022-08-05T01:40:17.930Z,534.00
2022-08-05T01:41:14.556Z,535.00
2022-08-05T01:42:15.281Z,534.00
2022-08-05T01:43:22.444Z,535.00
2022-08-05T01:44:15.519Z,534.00
2022-08-05T01:45:14.527Z,535.00
2022-08-05T01:46:16.510Z,537.00
2022-08-05T01:47:15.475Z,537.00
2022-08-05T01:48:14.461Z,533.00
2022-08-05T01:49:24.182Z,531.00
2022-08-05T01:50:15.981Z,530.00
2022-08-05T01:51:14.490Z,529.00
2022-08-05T01:52:17.952Z,526.00
2022-08-05T01:53:14.398Z,523.00
2022-08-05T01:54:15.386Z,519.00
2022-08-05T01:55:14.378Z,519.00
2022-08-05T01:58:11.541Z,514.00
2022-08-05T01:58:11.776Z,514.00
2022-08-05T01:58:15.772Z,511.00
2022-08-05T01:59:14.319Z,512.00
2022-08-05T02:00:14.334Z,511.00
2022-08-05T02:01:14.299Z,510.00
2022-08-05T02:02:14.425Z,508.00
2022-08-05T02:03:28.992Z,508.00
2022-08-05T02:04:15.243Z,507.00
2022-08-05T02:05:14.263Z,503.00
2022-08-05T02:06:33.819Z,506.00
2022-08-05T02:07:22.102Z,506.00
2022-08-05T02:08:15.249Z,503.00
2022-08-05T02:09:16.538Z,504.00
2022-08-05T02:10:17.524Z,506.00
2022-08-05T02:11:15.230Z,510.00
2022-08-05T02:12:15.139Z,508.00
2022-08-05T02:13:16.170Z,509.00
2022-08-05T02:14:14.139Z,506.00
2022-08-05T02:15:15.615Z,513.00
2022-08-05T02:16:16.492Z,518.00
2022-08-05T02:17:29.644Z,520.00
2022-08-05T02:18:33.178Z,525.00
2022-08-05T02:19:15.058Z,526.00
2022-08-05T02:20:14.074Z,527.00
2022-08-05T02:21:15.568Z,527.00
2022-08-05T02:22:25.875Z,526.00
2022-08-05T02:23:14.990Z,522.00
2022-08-05T02:24:13.992Z,525.00
2022-08-05T02:25:13.992Z,525.00
2022-08-05T02:26:14.002Z,527.00
2022-08-05T02:27:13.937Z,527.00
2022-08-05T02:28:14.022Z,527.00
2022-08-05T02:29:21.354Z,513.00
2022-08-05T02:30:14.922Z,513.00
2022-08-05T02:31:14.291Z,520.00
2022-08-05T02:32:23.896Z,522.00
2022-08-05T02:33:14.852Z,522.00
2022-08-05T02:34:14.832Z,520.00
2022-08-05T02:35:14.544Z,518.00
2022-08-05T02:36:15.583Z,519.00
2022-08-05T02:37:13.883Z,521.00
2022-08-05T02:38:19.354Z,519.00
2022-08-05T02:39:14.805Z,516.00
2022-08-05T02:40:13.796Z,514.00
2022-08-05T02:41:17.389Z,506.00
2022-08-05T02:42:25.680Z,511.00
2022-08-05T02:43:15.427Z,512.00
2022-08-05T02:44:14.745Z,508.00
2022-08-05T02:45:13.683Z,507.00
2022-08-05T02:46:16.338Z,502.00
2022-08-05T02:47:13.674Z,498.00
2022-08-05T02:48:13.762Z,493.00
2022-08-05T02:49:13.635Z,493.00
2022-08-05T02:50:13.664Z,490.00
2022-08-05T02:51:14.306Z,490.00
2022-08-05T02:52:30.279Z,492.00
2022-08-05T02:53:16.077Z,492.00
2022-08-05T02:54:34.427Z,494.00
2022-08-05T02:55:14.557Z,497.00
2022-08-05T02:56:15.680Z,499.00
2022-08-05T02:58:11.169Z,501.00
2022-08-05T02:58:14.553Z,502.00
2022-08-05T02:59:13.516Z,503.00
2022-08-05T03:00:13.535Z,507.00
2022-08-05T03:01:13.559Z,509.00
2022-08-05T03:02:13.557Z,507.00
2022-08-05T03:03:13.437Z,503.00
2022-08-05T03:04:14.578Z,498.00
2022-08-05T03:05:13.437Z,494.00
2022-08-05T03:06:55.961Z,496.00
2022-08-05T03:07:17.591Z,495.00
2022-08-05T03:08:14.785Z,498.00
2022-08-05T03:09:15.763Z,502.00
2022-08-05T03:10:13.482Z,494.00
2022-08-05T03:11:54.641Z,494.00
2022-08-05T03:12:14.352Z,492.00
2022-08-05T03:13:16.572Z,490.00
2022-08-05T03:14:13.730Z,487.00
2022-08-05T03:15:15.441Z,490.00
2022-08-05T03:16:13.288Z,494.00
2022-08-05T03:17:13.360Z,492.00
2022-08-05T03:18:13.246Z,488.00
2022-08-05T03:19:20.251Z,488.00
2022-08-05T03:20:14.229Z,487.00
2022-08-05T03:21:13.351Z,490.00
2022-08-05T03:22:16.760Z,492.00
2022-08-05T03:23:14.191Z,490.00
2022-08-05T03:24:13.345Z,485.00
2022-08-05T03:25:33.017Z,489.00
2022-08-05T03:26:32.279Z,494.00
2022-08-05T03:27:14.130Z,495.00
2022-08-05T03:28:13.999Z,492.00
2022-08-05T03:29:13.104Z,490.00
2022-08-05T03:30:13.091Z,493.00
2022-08-05T03:31:18.315Z,497.00
2022-08-05T03:32:14.404Z,495.00
2022-08-05T03:33:13.054Z,491.00
2022-08-05T03:34:13.082Z,493.00
2022-08-05T03:35:13.014Z,492.00
2022-08-05T03:36:14.113Z,492.00
2022-08-05T03:37:13.002Z,493.00
2022-08-05T03:38:14.374Z,494.00
2022-08-05T03:39:20.040Z,494.00
2022-08-05T03:40:14.047Z,492.00
2022-08-05T03:41:13.026Z,490.00
2022-08-05T03:42:12.923Z,490.00
2022-08-05T03:43:59.004Z,491.00
2022-08-05T03:44:19.728Z,491.00
2022-08-05T03:45:21.626Z,491.00
2022-08-05T03:46:13.872Z,490.00
2022-08-05T03:47:13.533Z,492.00
2022-08-05T03:48:12.855Z,491.00
2022-08-05T03:49:14.932Z,491.00
2022-08-05T03:50:12.934Z,496.00
2022-08-05T03:52:38.911Z,493.00
2022-08-05T03:52:48.554Z,493.00
2022-08-05T03:55:06.751Z,493.00
2022-08-05T03:55:53.476Z,490.00
2022-08-05T03:56:05.654Z,489.00
2022-08-05T03:56:26.861Z,486.00
2022-08-05T03:57:17.907Z,490.00
2022-08-05T03:58:12.714Z,490.00
2022-08-05T03:59:12.737Z,489.00
2022-08-05T04:00:16.020Z,491.00
2022-08-05T04:01:13.281Z,486.00
2022-08-05T04:02:17.371Z,487.00
2022-08-05T04:03:22.213Z,487.00
2022-08-05T04:04:13.695Z,492.00
2022-08-05T04:05:12.616Z,501.00
2022-08-05T04:06:12.687Z,489.00
2022-08-05T04:07:12.611Z,492.00
2022-08-05T04:08:14.899Z,489.00
2022-08-05T04:09:13.636Z,485.00
2022-08-05T04:10:13.558Z,487.00
2022-08-05T04:11:12.537Z,486.00
2022-08-05T04:12:24.689Z,486.00
2022-08-05T04:13:13.553Z,483.00
2022-08-05T04:14:17.982Z,483.00
2022-08-05T04:15:15.559Z,481.00
2022-08-05T04:16:12.556Z,483.00
2022-08-05T04:17:12.470Z,481.00
2022-08-05T04:18:15.889Z,484.00
2022-08-05T04:19:13.479Z,484.00
2022-08-05T04:20:12.490Z,480.00
2022-08-05T04:21:12.413Z,479.00
2022-08-05T04:22:13.402Z,479.00
2022-08-05T04:23:16.237Z,479.00
2022-08-05T04:24:33.482Z,477.00
2022-08-05T04:25:12.360Z,478.00
2022-08-05T04:26:12.419Z,478.00
2022-08-05T04:27:12.340Z,476.00
2022-08-05T04:28:12.933Z,472.00
2022-08-05T04:29:12.299Z,474.00
2022-08-05T04:30:12.401Z,475.00
2022-08-05T04:31:12.273Z,476.00
2022-08-05T04:32:12.361Z,477.00
2022-08-05T04:33:12.251Z,477.00
2022-08-05T04:34:18.343Z,476.00
2022-08-05T04:35:17.547Z,478.00
2022-08-05T04:36:16.138Z,476.00
2022-08-05T04:37:13.205Z,479.00
2022-08-05T04:38:12.181Z,483.00
2022-08-05T04:39:12.283Z,481.00
2022-08-05T04:40:12.151Z,481.00
2022-08-05T04:41:12.283Z,479.00
2022-08-05T04:42:12.130Z,475.00
2022-08-05T04:43:16.538Z,475.00
2022-08-05T04:44:12.103Z,477.00
2022-08-05T04:45:12.152Z,474.00
2022-08-05T04:46:13.104Z,471.00
2022-08-05T04:47:16.996Z,470.00
2022-08-05T04:48:18.625Z,473.00
2022-08-05T04:49:14.842Z,472.00
2022-08-05T04:50:12.094Z,474.00
2022-08-05T04:51:12.004Z,475.00
2022-08-05T04:52:12.054Z,471.00
2022-08-05T04:53:11.983Z,469.00
2022-08-05T04:54:12.346Z,473.00
2022-08-05T04:55:14.346Z,473.00
2022-08-05T04:56:33.535Z,473.00
2022-08-05T04:57:13.004Z,471.00
2022-08-05T04:58:12.356Z,475.00
2022-08-05T04:59:21.449Z,476.00
2022-08-05T05:00:12.895Z,478.00
2022-08-05T05:01:12.031Z,481.00
2022-08-05T05:02:36.497Z,481.00
2022-08-05T05:03:12.946Z,476.00
2022-08-05T05:04:12.917Z,474.00
2022-08-05T05:05:26.107Z,477.00
2022-08-05T05:06:39.693Z,478.00
2022-08-05T05:07:12.796Z,478.00
2022-08-05T05:08:14.330Z,476.00
2022-08-05T05:09:13.976Z,476.00
2022-08-05T05:10:11.817Z,476.00
2022-08-05T05:11:11.762Z,476.00
2022-08-05T05:12:11.896Z,475.00
2022-08-05T05:13:11.707Z,476.00
2022-08-05T05:14:16.279Z,472.00
2022-08-05T05:15:11.714Z,474.00
2022-08-05T05:16:12.678Z,475.00
2022-08-05T05:17:11.766Z,474.00
2022-08-05T05:18:11.646Z,472.00
2022-08-05T05:19:19.383Z,473.00
2022-08-05T05:20:12.647Z,474.00
2022-08-05T05:21:11.700Z,471.00
2022-08-05T05:22:23.571Z,471.00
2022-08-05T05:23:19.947Z,472.00
2022-08-05T05:24:12.579Z,469.00
2022-08-05T05:25:16.670Z,475.00
2022-08-05T05:26:12.569Z,475.00
2022-08-05T05:27:12.572Z,475.00
2022-08-05T05:28:11.509Z,474.00
2022-08-05T05:29:14.345Z,473.00
2022-08-05T05:30:15.736Z,472.00
2022-08-05T05:31:12.470Z,471.00
2022-08-05T05:32:12.641Z,471.00
2022-08-05T05:33:16.872Z,473.00
2022-08-05T05:34:12.430Z,475.00
2022-08-05T05:35:11.494Z,475.00
2022-08-05T05:36:12.414Z,474.00
2022-08-05T05:37:11.511Z,474.00
2022-08-05T05:38:13.242Z,475.00
2022-08-05T05:39:11.497Z,472.00
2022-08-05T05:40:11.351Z,470.00
2022-08-05T05:41:12.280Z,469.00
2022-08-05T05:42:12.330Z,470.00
2022-08-05T05:43:11.400Z,470.00
2022-08-05T05:44:37.036Z,473.00
2022-08-05T05:45:12.284Z,469.00
2022-08-05T05:46:17.814Z,471.00
2022-08-05T05:47:30.130Z,473.00
2022-08-05T05:48:12.270Z,474.00
2022-08-05T05:49:22.583Z,472.00
2022-08-05T05:50:16.278Z,473.00
2022-08-05T05:51:15.420Z,478.00
2022-08-05T05:52:13.306Z,478.00
2022-08-05T05:53:21.255Z,478.00
2022-08-05T05:54:12.202Z,477.00
2022-08-05T05:55:13.370Z,479.00
2022-08-05T05:56:11.146Z,478.00
2022-08-05T05:57:13.794Z,475.00
2022-08-05T05:58:12.112Z,474.00
2022-08-05T05:59:11.162Z,472.00
2022-08-05T06:00:11.114Z,473.00
2022-08-05T06:01:12.654Z,473.00
2022-08-05T06:02:11.074Z,468.00
2022-08-05T06:03:40.096Z,469.00
2022-08-05T06:04:14.531Z,469.00
2022-08-05T06:05:16.651Z,466.00
2022-08-05T06:06:11.025Z,470.00
2022-08-05T06:07:11.114Z,470.00
2022-08-05T06:08:10.993Z,470.00
2022-08-05T06:09:17.621Z,472.00
2022-08-05T06:10:11.962Z,471.00
2022-08-05T06:11:11.198Z,472.00
2022-08-05T06:12:12.055Z,471.00
2022-08-05T06:13:10.957Z,464.00
2022-08-05T06:14:10.916Z,470.00
2022-08-05T06:15:16.519Z,471.00
2022-08-05T06:16:30.805Z,470.00
2022-08-05T06:17:22.458Z,470.00
2022-08-05T06:18:11.858Z,471.00
2022-08-05T06:19:10.898Z,471.00
2022-08-05T06:20:18.898Z,473.00
2022-08-05T06:21:16.608Z,474.00
2022-08-05T06:22:11.805Z,473.00
2022-08-05T06:23:10.878Z,469.00
2022-08-05T06:24:12.716Z,471.00
2022-08-05T06:25:59.524Z,472.00
2022-08-05T06:26:20.642Z,472.00
2022-08-05T06:27:17.102Z,471.00
2022-08-05T06:28:20.923Z,471.00
2022-08-05T06:29:25.390Z,470.00
2022-08-05T06:30:17.772Z,470.00
2022-08-05T06:31:17.870Z,469.00
2022-08-05T06:32:25.797Z,471.00
2022-08-05T06:33:11.667Z,474.00
2022-08-05T06:34:11.779Z,472.00
2022-08-05T06:35:21.595Z,474.00
2022-08-05T06:36:11.630Z,473.00
2022-08-05T06:37:10.612Z,476.00
2022-08-05T06:38:11.760Z,473.00
2022-08-05T06:39:10.639Z,473.00
2022-08-05T06:40:10.692Z,473.00
2022-08-05T06:41:11.655Z,475.00
2022-08-05T06:42:10.549Z,476.00
2022-08-05T06:43:51.608Z,475.00
2022-08-05T06:44:11.514Z,476.00
2022-08-05T06:45:10.492Z,475.00
2022-08-05T06:46:13.583Z,471.00
2022-08-05T06:47:30.347Z,473.00
2022-08-05T06:48:47.182Z,469.00
2022-08-05T06:49:12.086Z,471.00
2022-08-05T06:50:10.423Z,472.00
2022-08-05T06:51:12.153Z,473.00
2022-08-05T06:52:37.816Z,473.00
2022-08-05T06:53:22.655Z,471.00
2022-08-05T06:54:11.876Z,469.00
2022-08-05T06:55:10.441Z,472.00
2022-08-05T06:56:26.131Z,474.00
2022-08-05T06:57:56.824Z,467.00
2022-08-05T06:58:20.040Z,471.00
2022-08-05T06:59:11.946Z,469.00
2022-08-05T07:00:10.375Z,471.00
2022-08-05T07:01:10.282Z,468.00
2022-08-05T07:02:10.304Z,468.00
2022-08-05T07:03:10.253Z,469.00
2022-08-05T07:04:10.357Z,466.00
2022-08-05T07:05:14.498Z,471.00
2022-08-05T07:06:14.366Z,470.00
2022-08-05T07:07:10.195Z,471.00
2022-08-05T07:08:11.213Z,471.00
2022-08-05T07:09:10.175Z,467.00
2022-08-05T07:10:24.502Z,468.00
2022-08-05T07:11:15.033Z,470.00
2022-08-05T07:12:10.126Z,471.00
2022-08-05T07:13:10.158Z,472.00
2022-08-05T07:14:20.001Z,469.00
2022-08-05T07:15:11.115Z,466.00
2022-08-05T07:16:12.140Z,465.00
2022-08-05T07:17:59.947Z,465.00
2022-08-05T07:18:12.653Z,466.00
2022-08-05T07:19:11.068Z,463.00
2022-08-05T07:20:32.371Z,459.00
2022-08-05T07:21:11.029Z,459.00
2022-08-05T07:22:10.000Z,459.00
2022-08-05T07:23:25.948Z,459.00
2022-08-05T07:24:11.405Z,473.00
2022-08-05T07:25:54.122Z,466.00
2022-08-05T07:26:32.021Z,466.00
2022-08-05T07:27:09.932Z,466.00
2022-08-05T07:28:11.994Z,469.00
2022-08-05T07:29:10.900Z,469.00
2022-08-05T07:30:27.815Z,468.00
2022-08-05T07:31:10.910Z,474.00
2022-08-05T07:32:09.887Z,469.00
2022-08-05T07:33:15.523Z,466.00
2022-08-05T07:34:10.884Z,468.00
2022-08-05T07:35:55.650Z,463.00
2022-08-05T07:36:20.100Z,466.00
2022-08-05T07:37:11.712Z,463.00
2022-08-05T07:38:12.271Z,460.00
2022-08-05T07:39:50.418Z,454.00
2022-08-05T07:40:31.386Z,464.00
2022-08-05T07:41:35.093Z,458.00
2022-08-05T07:42:15.187Z,457.00
2022-08-05T07:43:14.491Z,456.00
2022-08-05T07:44:18.477Z,457.00
2022-08-05T07:45:10.693Z,461.00
2022-08-05T07:46:24.725Z,463.00
2022-08-05T07:47:10.671Z,467.00
2022-08-05T07:48:09.645Z,464.00
2022-08-05T07:49:09.808Z,465.00
2022-08-05T07:50:09.632Z,461.00
2022-08-05T07:51:23.440Z,464.00
2022-08-05T07:52:10.645Z,463.00
2022-08-05T07:53:09.605Z,461.00
2022-08-05T07:54:10.411Z,459.00
2022-08-05T07:55:15.686Z,464.00
2022-08-05T07:57:00.667Z,462.00
2022-08-05T07:57:41.801Z,462.00
2022-08-05T07:58:17.773Z,463.00
2022-08-05T07:59:10.615Z,464.00
2022-08-05T08:00:10.498Z,470.00
2022-08-05T08:01:12.077Z,479.00
2022-08-05T08:02:15.274Z,479.00
2022-08-05T08:03:15.389Z,480.00
2022-08-05T08:04:10.438Z,473.00
2022-08-05T08:05:11.403Z,473.00
2022-08-05T08:06:09.415Z,469.00
2022-08-05T08:07:09.473Z,465.00
2022-08-05T08:08:12.416Z,460.00
2022-08-05T08:09:09.548Z,459.00
2022-08-05T08:10:09.366Z,463.00
2022-08-05T08:11:09.460Z,455.00
2022-08-05T08:12:27.410Z,456.00
2022-08-05T08:13:11.577Z,457.00
2022-08-05T08:14:09.377Z,458.00
2022-08-05T08:15:09.387Z,460.00
2022-08-05T08:16:35.082Z,463.00
2022-08-05T08:17:10.269Z,463.00
2022-08-05T08:18:13.807Z,463.00
2022-08-05T08:19:09.252Z,464.00
2022-08-05T08:20:43.862Z,464.00
2022-08-05T08:21:15.783Z,464.00
2022-08-05T08:22:10.199Z,463.00
2022-08-05T08:24:00.436Z,461.00
2022-08-05T08:24:13.816Z,459.00
2022-08-05T08:25:15.715Z,462.00
2022-08-05T08:26:10.150Z,464.00
2022-08-05T08:27:09.170Z,462.00
2022-08-05T08:28:18.514Z,466.00
2022-08-05T08:30:03.061Z,468.00
2022-08-05T08:30:27.697Z,469.00
2022-08-05T08:31:10.088Z,462.00
2022-08-05T08:32:10.803Z,462.00
2022-08-05T08:33:09.145Z,465.00
2022-08-05T08:34:09.040Z,463.00
2022-08-05T08:35:13.622Z,462.00
2022-08-05T08:37:10.003Z,457.00
2022-08-05T08:38:11.611Z,457.00
2022-08-05T08:39:15.761Z,457.00
2022-08-05T08:40:09.966Z,456.00
2022-08-05T08:41:14.053Z,462.00
2022-08-05T08:42:32.291Z,467.00
2022-08-05T08:44:54.756Z,468.00
2022-08-05T08:45:19.799Z,470.00
2022-08-05T08:45:24.013Z,471.00
2022-08-05T08:46:10.242Z,476.00
2022-08-05T08:47:47.825Z,508.00
2022-08-05T08:48:23.132Z,487.00
2022-08-05T08:50:12.900Z,475.00
2022-08-05T08:50:30.890Z,477.00
2022-08-05T08:51:54.492Z,474.00
2022-08-05T08:52:24.186Z,467.00
2022-08-05T08:53:14.314Z,471.00
2022-08-05T08:54:11.628Z,472.00
2022-08-05T08:55:13.179Z,467.00
2022-08-05T08:56:08.754Z,463.00
2022-08-05T08:57:11.019Z,468.00
2022-08-05T08:58:08.807Z,470.00
2022-08-05T08:59:14.835Z,465.00
2022-08-05T09:00:09.817Z,461.00
2022-08-05T09:01:15.611Z,461.00
2022-08-05T09:02:09.667Z,458.00
2022-08-05T09:03:09.827Z,459.00
2022-08-05T09:04:10.609Z,460.00
2022-08-05T09:05:17.385Z,462.00
2022-08-05T09:06:11.532Z,465.00
2022-08-05T09:07:10.655Z,460.00
2022-08-05T09:08:09.706Z,460.00
2022-08-05T09:09:08.728Z,466.00
2022-08-05T09:10:08.560Z,463.00
2022-08-05T09:11:08.721Z,466.00
2022-08-05T09:12:19.861Z,463.00
2022-08-05T09:13:09.519Z,461.00
2022-08-05T09:14:54.344Z,461.00
2022-08-05T09:15:09.519Z,454.00
2022-08-05T09:16:08.498Z,457.00
2022-08-05T09:17:40.500Z,453.00
2022-08-05T09:18:09.815Z,447.00
2022-08-05T09:19:08.443Z,451.00
2022-08-05T09:20:09.546Z,447.00
2022-08-05T09:21:11.531Z,444.00
2022-08-05T09:22:22.143Z,446.00
2022-08-05T09:23:09.785Z,442.00
2022-08-05T09:24:10.211Z,446.00
2022-08-05T09:25:13.705Z,450.00
2022-08-05T09:26:09.442Z,451.00
2022-08-05T09:27:08.468Z,485.00
2022-08-05T09:28:08.335Z,472.00
2022-08-05T09:29:08.836Z,467.00
2022-08-05T09:30:08.485Z,446.00
2022-08-05T09:31:43.286Z,514.00
2022-08-05T09:32:42.252Z,629.00
2022-08-05T09:33:09.274Z,558.00
2022-08-05T09:34:09.807Z,552.00
2022-08-05T09:35:10.413Z,504.00
2022-08-05T09:36:16.217Z,649.00
2022-08-05T09:37:15.109Z,700.00
2022-08-05T09:38:16.853Z,571.00
2022-08-05T09:39:18.514Z,476.00
2022-08-05T09:40:09.213Z,453.00
2022-08-05T09:41:08.329Z,444.00
2022-08-05T09:42:08.417Z,438.00
2022-08-05T09:43:08.494Z,469.00
2022-08-05T09:44:08.118Z,589.00
2022-08-05T09:46:06.672Z,480.00
2022-08-05T09:46:09.099Z,459.00
2022-08-05T09:47:10.412Z,450.00
2022-08-05T09:48:08.067Z,444.00
2022-08-05T09:49:19.558Z,440.00
2022-08-05T09:50:09.038Z,437.00
2022-08-05T09:51:15.112Z,436.00
2022-08-05T09:52:09.078Z,437.00
2022-08-05T09:53:08.880Z,438.00
2022-08-05T09:54:07.989Z,437.00
2022-08-05T09:55:56.107Z,437.00
2022-08-05T09:56:12.924Z,448.00
2022-08-05T09:57:23.150Z,447.00
2022-08-05T09:58:08.930Z,473.00
2022-08-05T09:59:08.047Z,523.00
2022-08-05T10:00:07.922Z,483.00
2022-08-05T10:01:14.833Z,457.00
2022-08-05T10:02:08.982Z,498.00
2022-08-05T10:03:56.776Z,520.00
2022-08-05T10:04:10.600Z,562.00
2022-08-05T10:05:07.952Z,514.00
2022-08-05T10:06:15.408Z,444.00
2022-08-05T10:07:19.579Z,442.00
2022-08-05T10:08:35.080Z,445.00
2022-08-05T10:09:08.791Z,445.00
2022-08-05T10:10:14.785Z,442.00
2022-08-05T10:11:08.759Z,441.00
2022-08-05T10:12:18.561Z,436.00
2022-08-05T10:13:09.938Z,434.00
2022-08-05T10:14:07.912Z,437.00
2022-08-05T10:15:07.716Z,436.00
2022-08-05T10:16:07.895Z,458.00
2022-08-05T10:17:07.683Z,448.00
2022-08-05T10:18:08.682Z,447.00
2022-08-05T10:19:09.250Z,467.00
2022-08-05T10:20:11.066Z,566.00
2022-08-05T10:21:11.852Z,483.00
2022-08-05T10:22:08.949Z,457.00
2022-08-05T10:23:21.890Z,448.00
2022-08-05T10:24:10.868Z,444.00
2022-08-05T10:25:07.622Z,440.00
2022-08-05T10:26:07.726Z,450.00
2022-08-05T10:27:08.576Z,450.00
2022-08-05T10:28:13.857Z,489.00
2022-08-05T10:29:08.525Z,468.00
2022-08-05T10:32:02.978Z,537.00
2022-08-05T10:32:48.134Z,494.00
2022-08-05T10:32:51.664Z,577.00
2022-08-05T10:33:09.370Z,625.00
2022-08-05T10:34:08.470Z,582.00
2022-08-05T10:35:07.577Z,592.00
2022-08-05T10:36:07.439Z,458.00
2022-08-05T10:37:07.567Z,587.00
2022-08-05T10:38:08.292Z,612.00
2022-08-05T10:39:11.590Z,469.00
2022-08-05T10:40:17.888Z,451.00
2022-08-05T10:41:08.486Z,449.00
2022-08-05T10:42:07.353Z,446.00
2022-08-05T10:43:07.367Z,465.00
2022-08-05T10:44:08.330Z,457.00
2022-08-05T10:45:21.434Z,486.00
2022-08-05T10:46:08.447Z,472.00
2022-08-05T10:47:10.188Z,469.00
2022-08-05T10:48:29.425Z,470.00
2022-08-05T10:49:10.418Z,495.00
2022-08-05T10:50:32.341Z,449.00
2022-08-05T10:51:22.505Z,454.00
2022-08-05T10:52:10.539Z,551.00
2022-08-05T10:53:07.223Z,628.00
2022-08-05T10:54:28.192Z,643.00
2022-08-05T10:55:08.209Z,477.00
2022-08-05T10:56:21.608Z,476.00
2022-08-05T10:57:08.143Z,502.00
2022-08-05T10:58:07.252Z,603.00
2022-08-05T11:00:01.261Z,634.00
2022-08-05T11:00:16.099Z,459.00
2022-08-05T11:01:08.153Z,435.00
2022-08-05T11:02:07.136Z,548.00
2022-08-05T11:03:24.476Z,612.00
2022-08-05T11:04:08.180Z,449.00
2022-08-05T11:05:31.509Z,437.00
2022-08-05T11:06:08.612Z,456.00
2022-08-05T11:07:08.066Z,450.00
2022-08-05T11:08:33.884Z,434.00
2022-08-05T11:09:08.003Z,435.00
2022-08-05T11:10:10.009Z,435.00
2022-08-05T11:11:14.604Z,439.00
2022-08-05T11:12:07.964Z,450.00
2022-08-05T11:13:07.048Z,444.00
2022-08-05T11:14:06.916Z,443.00
2022-08-05T11:15:19.082Z,442.00
2022-08-05T11:16:07.933Z,445.00
2022-08-05T11:18:00.250Z,446.00
2022-08-05T11:18:09.720Z,446.00
2022-08-05T11:20:11.182Z,447.00
2022-08-05T11:20:16.628Z,450.00
2022-08-05T11:21:11.599Z,446.00
2022-08-05T11:22:06.847Z,444.00
2022-08-05T11:23:10.431Z,443.00
2022-08-05T11:24:29.848Z,545.00
2022-08-05T11:26:03.266Z,542.00
2022-08-05T11:26:09.030Z,482.00
2022-08-05T11:27:07.920Z,575.00
2022-08-05T11:28:06.780Z,605.00
2022-08-05T11:29:13.129Z,614.00
2022-08-05T11:30:07.756Z,476.00
2022-08-05T11:31:06.902Z,563.00
2022-08-05T11:32:06.700Z,535.00
2022-08-05T11:33:06.800Z,455.00
2022-08-05T11:34:08.087Z,472.00
2022-08-05T11:35:08.831Z,417.00
2022-08-05T11:36:08.953Z,449.00
2022-08-05T11:38:30.057Z,434.00
2022-08-05T11:38:36.952Z,457.00
2022-08-05T11:39:07.622Z,452.00
2022-08-05T11:40:07.823Z,455.00
2022-08-05T11:41:35.061Z,461.00
2022-08-05T11:42:07.594Z,459.00
2022-08-05T11:43:06.552Z,441.00
2022-08-05T11:44:08.251Z,440.00
2022-08-05T11:45:14.434Z,437.00
2022-08-05T11:46:27.388Z,441.00
2022-08-05T11:47:13.992Z,439.00
2022-08-05T11:48:07.643Z,448.00
2022-08-05T11:49:08.077Z,443.00
2022-08-05T11:50:06.466Z,516.00
2022-08-05T11:51:07.535Z,538.00
2022-08-05T11:52:11.173Z,567.00
2022-08-05T11:53:09.963Z,561.00
2022-08-05T11:54:06.527Z,555.00
2022-08-05T11:55:07.624Z,488.00
2022-08-05T11:56:06.383Z,456.00
2022-08-05T11:57:07.684Z,463.00
2022-08-05T11:58:09.389Z,446.00
2022-08-05T11:59:13.574Z,438.00
2022-08-05T12:00:07.345Z,500.00
2022-08-05T12:01:08.523Z,516.00
2022-08-05T12:02:06.323Z,504.00
2022-08-05T12:03:07.331Z,452.00
2022-08-05T12:04:06.399Z,434.00
2022-08-05T12:05:07.728Z,448.00
2022-08-05T12:06:09.822Z,445.00
2022-08-05T12:07:06.249Z,443.00
2022-08-05T12:08:11.522Z,440.00
2022-08-05T12:09:07.236Z,481.00
2022-08-05T12:10:06.381Z,462.00
2022-08-05T12:11:06.441Z,466.00
2022-08-05T12:12:06.349Z,455.00
2022-08-05T12:13:13.995Z,440.00
2022-08-05T12:14:07.207Z,435.00
2022-08-05T12:15:06.299Z,439.00
2022-08-05T12:16:14.177Z,443.00
2022-08-05T12:18:04.186Z,448.00
2022-08-05T12:18:10.604Z,450.00
2022-08-05T12:19:08.307Z,443.00
2022-08-05T12:20:27.016Z,453.00
2022-08-05T12:21:07.081Z,452.00
2022-08-05T12:22:29.185Z,443.00
2022-08-05T12:23:06.042Z,438.00
2022-08-05T12:24:07.234Z,435.00
2022-08-05T12:25:06.013Z,442.00
2022-08-05T12:26:06.191Z,443.00
2022-08-05T12:27:09.681Z,441.00
2022-08-05T12:28:07.066Z,439.00
2022-08-05T12:29:06.094Z,488.00